CSN6771 ZJHK-ZGGG
Flight info
| Callsign | CSN6771 |
|---|---|
| Flight time | 0h 56m |
| Altitude | 26600 |
| Route | AGTEL9XD AGTEL W71 LH DCT GYA GYA8 |
| Aircraft | A320/M-SDE3FGHIRWY/LB1 |
Departure
| Time | 2026-04-21 11:53 |
|---|---|
| Airport | Haikou Meilan International Airport (ZJHK) |
Arrival
| Time | 2026-04-21 12:50 |
|---|---|
| Airport | Guangzhou Baiyun International Airport (ZGGG) |
| Time | Latitude | Longitude | Altitude | Speed | Heading |
|---|---|---|---|---|---|
| 2026-04-21 11:42 | 19.94861 | 110.45358 | 57 ft | 0 kts | 53° |
| 2026-04-21 11:43 | 19.94856 | 110.45352 | 57 ft | 4 kts | 52° |
| 2026-04-21 11:43 | 19.94839 | 110.45330 | 57 ft | 4 kts | 44° |
| 2026-04-21 11:43 | 19.94819 | 110.45312 | 58 ft | 4 kts | 33° |
| 2026-04-21 11:43 | 19.94795 | 110.45299 | 58 ft | 4 kts | 9° |
| 2026-04-21 11:44 | 19.94774 | 110.45301 | 58 ft | 2 kts | 316° |
| 2026-04-21 11:44 | 19.94773 | 110.45302 | 58 ft | 0 kts | 315° |
| 2026-04-21 11:45 | 19.94776 | 110.45299 | 58 ft | 2 kts | 315° |
| 2026-04-21 11:46 | 19.94797 | 110.45277 | 58 ft | 6 kts | 315° |
| 2026-04-21 11:46 | 19.94808 | 110.45266 | 58 ft | 0 kts | 315° |
| 2026-04-21 11:49 | 19.94809 | 110.45264 | 58 ft | 2 kts | 315° |
| 2026-04-21 11:49 | 19.94827 | 110.45246 | 57 ft | 5 kts | 315° |
| 2026-04-21 11:50 | 19.94863 | 110.45208 | 57 ft | 9 kts | 315° |
| 2026-04-21 11:50 | 19.94903 | 110.45142 | 56 ft | 12 kts | 279° |
| 2026-04-21 11:50 | 19.94953 | 110.45079 | 55 ft | 14 kts | 359° |
| 2026-04-21 11:50 | 19.95064 | 110.45078 | 54 ft | 18 kts | 0° |
| 2026-04-21 11:51 | 19.95187 | 110.45064 | 53 ft | 17 kts | 319° |
| 2026-04-21 11:51 | 19.95203 | 110.44947 | 52 ft | 15 kts | 269° |
| 2026-04-21 11:51 | 19.95220 | 110.44832 | 52 ft | 17 kts | 323° |
| 2026-04-21 11:51 | 19.95312 | 110.44827 | 50 ft | 14 kts | 15° |
| 2026-04-21 11:52 | 19.95372 | 110.44888 | 50 ft | 12 kts | 86° |
| 2026-04-21 11:52 | 19.95372 | 110.44901 | 50 ft | 0 kts | 89° |
| 2026-04-21 11:52 | 19.95372 | 110.44966 | 51 ft | 26 kts | 90° |
| 2026-04-21 11:52 | 19.95370 | 110.45420 | 56 ft | 97 kts | 90° |
| 2026-04-21 11:53 | 19.95373 | 110.46346 | 56 ft | 151 kts | 90° |
| 2026-04-21 11:53 | 19.95376 | 110.47571 | 360 ft | 171 kts | 90° |
| 2026-04-21 11:53 | 19.95431 | 110.48837 | 1049 ft | 172 kts | 76° |
| 2026-04-21 11:53 | 19.96045 | 110.49938 | 1508 ft | 185 kts | 39° |
| 2026-04-21 11:54 | 19.97287 | 110.50455 | 1798 ft | 207 kts | 360° |
| 2026-04-21 11:54 | 19.98732 | 110.50039 | 2157 ft | 227 kts | 336° |
| 2026-04-21 11:54 | 20.00243 | 110.49345 | 2719 ft | 242 kts | 335° |
| 2026-04-21 11:54 | 20.01798 | 110.48620 | 3628 ft | 246 kts | 335° |
| 2026-04-21 11:55 | 20.03355 | 110.47892 | 4533 ft | 250 kts | 335° |
| 2026-04-21 11:55 | 20.04960 | 110.47146 | 5426 ft | 254 kts | 336° |
| 2026-04-21 11:55 | 20.06592 | 110.46393 | 6298 ft | 258 kts | 336° |
| 2026-04-21 11:55 | 20.08250 | 110.45632 | 7147 ft | 262 kts | 336° |
| 2026-04-21 11:56 | 20.09935 | 110.44860 | 7977 ft | 265 kts | 336° |
| 2026-04-21 11:56 | 20.11642 | 110.44078 | 8775 ft | 269 kts | 336° |
| 2026-04-21 11:56 | 20.13374 | 110.43283 | 9541 ft | 273 kts | 336° |
| 2026-04-21 11:56 | 20.15130 | 110.42475 | 10279 ft | 277 kts | 336° |
| 2026-04-21 11:57 | 20.16911 | 110.41660 | 10993 ft | 280 kts | 336° |
| 2026-04-21 11:57 | 20.18689 | 110.40848 | 11674 ft | 284 kts | 336° |
| 2026-04-21 11:57 | 20.20515 | 110.40015 | 12339 ft | 287 kts | 336° |
| 2026-04-21 11:57 | 20.22363 | 110.39173 | 12979 ft | 291 kts | 336° |
| 2026-04-21 11:58 | 20.24232 | 110.38320 | 13595 ft | 294 kts | 336° |
| 2026-04-21 11:58 | 20.26150 | 110.37526 | 14123 ft | 301 kts | 341° |
| 2026-04-21 11:58 | 20.28207 | 110.36816 | 14247 ft | 320 kts | 341° |
| 2026-04-21 11:58 | 20.30386 | 110.36067 | 14379 ft | 338 kts | 342° |
| 2026-04-21 11:59 | 20.32676 | 110.35282 | 14507 ft | 353 kts | 342° |
| 2026-04-21 11:59 | 20.35033 | 110.34475 | 14632 ft | 368 kts | 342° |
| 2026-04-21 11:59 | 20.37513 | 110.33628 | 14759 ft | 381 kts | 342° |
| 2026-04-21 11:59 | 20.40075 | 110.32751 | 14886 ft | 392 kts | 342° |
| 2026-04-21 12:00 | 20.42710 | 110.31847 | 15012 ft | 403 kts | 342° |
| 2026-04-21 12:00 | 20.45416 | 110.30917 | 15139 ft | 413 kts | 342° |
| 2026-04-21 12:00 | 20.48191 | 110.29981 | 15263 ft | 423 kts | 345° |
| 2026-04-21 12:00 | 20.51087 | 110.29484 | 15386 ft | 433 kts | 357° |
| 2026-04-21 12:01 | 20.54120 | 110.29582 | 15514 ft | 440 kts | 3° |
| 2026-04-21 12:01 | 20.57198 | 110.29787 | 15664 ft | 446 kts | 3° |
| 2026-04-21 12:01 | 20.60300 | 110.30000 | 15887 ft | 448 kts | 3° |
| 2026-04-21 12:01 | 20.63421 | 110.30213 | 16115 ft | 450 kts | 3° |
| 2026-04-21 12:02 | 20.66551 | 110.30424 | 16337 ft | 452 kts | 3° |
| 2026-04-21 12:02 | 20.72854 | 110.30835 | 16746 ft | 455 kts | 3° |
| 2026-04-21 12:02 | 20.76024 | 110.31040 | 16937 ft | 457 kts | 3° |
| 2026-04-21 12:03 | 20.79198 | 110.31245 | 17116 ft | 458 kts | 3° |
| 2026-04-21 12:03 | 20.82338 | 110.31449 | 17284 ft | 459 kts | 3° |
| 2026-04-21 12:03 | 20.85532 | 110.31656 | 17444 ft | 460 kts | 3° |
| 2026-04-21 12:03 | 20.88737 | 110.31865 | 17596 ft | 462 kts | 3° |
| 2026-04-21 12:04 | 20.91947 | 110.32079 | 17740 ft | 463 kts | 3° |
| 2026-04-21 12:04 | 20.95165 | 110.32297 | 17880 ft | 464 kts | 3° |
| 2026-04-21 12:04 | 20.98390 | 110.32514 | 18017 ft | 465 kts | 3° |
| 2026-04-21 12:04 | 21.01625 | 110.32720 | 18148 ft | 466 kts | 3° |
| 2026-04-21 12:05 | 21.04867 | 110.32904 | 18275 ft | 467 kts | 2° |
| 2026-04-21 12:05 | 21.08111 | 110.33169 | 18395 ft | 468 kts | 8° |
| 2026-04-21 12:05 | 21.11238 | 110.33958 | 18518 ft | 469 kts | 18° |
| 2026-04-21 12:05 | 21.14233 | 110.35349 | 18644 ft | 470 kts | 28° |
| 2026-04-21 12:06 | 21.16954 | 110.37292 | 18769 ft | 471 kts | 39° |
| 2026-04-21 12:06 | 21.19340 | 110.39695 | 18899 ft | 471 kts | 46° |
| 2026-04-21 12:06 | 21.21635 | 110.42210 | 19047 ft | 474 kts | 45° |
| 2026-04-21 12:06 | 21.23949 | 110.44743 | 19427 ft | 477 kts | 45° |
| 2026-04-21 12:07 | 21.26280 | 110.47288 | 19801 ft | 480 kts | 45° |
| 2026-04-21 12:07 | 21.28596 | 110.49818 | 20151 ft | 483 kts | 45° |
| 2026-04-21 12:07 | 21.30956 | 110.52396 | 20493 ft | 486 kts | 45° |
| 2026-04-21 12:07 | 21.33331 | 110.54990 | 20821 ft | 489 kts | 45° |
| 2026-04-21 12:08 | 21.35720 | 110.57599 | 21143 ft | 491 kts | 45° |
| 2026-04-21 12:08 | 21.38120 | 110.60225 | 21451 ft | 494 kts | 45° |
| 2026-04-21 12:08 | 21.40530 | 110.62866 | 21749 ft | 497 kts | 45° |
| 2026-04-21 12:08 | 21.42953 | 110.65526 | 22036 ft | 499 kts | 45° |
| 2026-04-21 12:09 | 21.45382 | 110.68194 | 22261 ft | 498 kts | 45° |
| 2026-04-21 12:09 | 21.47761 | 110.70809 | 22381 ft | 494 kts | 46° |
| 2026-04-21 12:09 | 21.50150 | 110.73437 | 22536 ft | 490 kts | 45° |
| 2026-04-21 12:09 | 21.52526 | 110.76048 | 22605 ft | 488 kts | 45° |
| 2026-04-21 12:10 | 21.54898 | 110.78653 | 22609 ft | 488 kts | 45° |
| 2026-04-21 12:10 | 21.57268 | 110.81254 | 22609 ft | 487 kts | 45° |
| 2026-04-21 12:10 | 21.59639 | 110.83857 | 22609 ft | 487 kts | 45° |
| 2026-04-21 12:10 | 21.62007 | 110.86461 | 22609 ft | 487 kts | 46° |
| 2026-04-21 12:11 | 21.64371 | 110.89066 | 22609 ft | 487 kts | 46° |
| 2026-04-21 12:11 | 21.66703 | 110.91638 | 22609 ft | 487 kts | 46° |
| 2026-04-21 12:11 | 21.69066 | 110.94244 | 22609 ft | 487 kts | 46° |
| 2026-04-21 12:11 | 21.71429 | 110.96852 | 22609 ft | 487 kts | 46° |
| 2026-04-21 12:12 | 21.73790 | 110.99459 | 22609 ft | 486 kts | 46° |
| 2026-04-21 12:12 | 21.76151 | 111.02066 | 22609 ft | 486 kts | 46° |
| 2026-04-21 12:12 | 21.78511 | 111.04673 | 22609 ft | 486 kts | 46° |
| 2026-04-21 12:12 | 21.80871 | 111.07281 | 22609 ft | 486 kts | 46° |
| 2026-04-21 12:13 | 21.83198 | 111.09854 | 22609 ft | 486 kts | 46° |
| 2026-04-21 12:13 | 21.85556 | 111.12466 | 22609 ft | 486 kts | 46° |
| 2026-04-21 12:13 | 21.87911 | 111.15076 | 22609 ft | 486 kts | 46° |
| 2026-04-21 12:13 | 21.90269 | 111.17688 | 22609 ft | 486 kts | 46° |
| 2026-04-21 12:14 | 21.92626 | 111.20299 | 22609 ft | 486 kts | 46° |
| 2026-04-21 12:14 | 21.94982 | 111.22909 | 22609 ft | 486 kts | 46° |
| 2026-04-21 12:14 | 21.97341 | 111.25524 | 22609 ft | 486 kts | 46° |
| 2026-04-21 12:14 | 21.99699 | 111.28138 | 22609 ft | 486 kts | 46° |
| 2026-04-21 12:15 | 22.02021 | 111.30714 | 22609 ft | 486 kts | 46° |
| 2026-04-21 12:15 | 22.04378 | 111.33331 | 22609 ft | 486 kts | 46° |
| 2026-04-21 12:15 | 22.06731 | 111.35950 | 22609 ft | 486 kts | 46° |
| 2026-04-21 12:15 | 22.09085 | 111.38571 | 22609 ft | 486 kts | 46° |
| 2026-04-21 12:16 | 22.11438 | 111.41187 | 22609 ft | 486 kts | 46° |
| 2026-04-21 12:16 | 22.13792 | 111.43806 | 22609 ft | 486 kts | 46° |
| 2026-04-21 12:16 | 22.16144 | 111.46428 | 22609 ft | 486 kts | 46° |
| 2026-04-21 12:16 | 22.18497 | 111.49047 | 22609 ft | 486 kts | 46° |
| 2026-04-21 12:17 | 22.20852 | 111.51666 | 22609 ft | 486 kts | 46° |
| 2026-04-21 12:17 | 22.23173 | 111.54249 | 22609 ft | 486 kts | 46° |
| 2026-04-21 12:17 | 22.25523 | 111.56872 | 22609 ft | 486 kts | 46° |
| 2026-04-21 12:17 | 22.27874 | 111.59500 | 22609 ft | 486 kts | 46° |
| 2026-04-21 12:18 | 22.30223 | 111.62127 | 22609 ft | 486 kts | 46° |
| 2026-04-21 12:18 | 22.32574 | 111.64757 | 22420 ft | 489 kts | 46° |
| 2026-04-21 12:18 | 22.34948 | 111.67414 | 22163 ft | 494 kts | 46° |
| 2026-04-21 12:18 | 22.37344 | 111.70094 | 21913 ft | 497 kts | 46° |
| 2026-04-21 12:19 | 22.39744 | 111.72778 | 21662 ft | 496 kts | 46° |
| 2026-04-21 12:19 | 22.42136 | 111.75456 | 21412 ft | 494 kts | 46° |
| 2026-04-21 12:19 | 22.44485 | 111.78089 | 21165 ft | 492 kts | 46° |
| 2026-04-21 12:19 | 22.46856 | 111.80749 | 20915 ft | 490 kts | 46° |
| 2026-04-21 12:20 | 22.49217 | 111.83399 | 20665 ft | 488 kts | 46° |
| 2026-04-21 12:20 | 22.51567 | 111.86036 | 20415 ft | 486 kts | 46° |
| 2026-04-21 12:20 | 22.53909 | 111.88664 | 20164 ft | 484 kts | 46° |
| 2026-04-21 12:20 | 22.56238 | 111.91282 | 19914 ft | 482 kts | 46° |
| 2026-04-21 12:21 | 22.58555 | 111.93890 | 19664 ft | 480 kts | 46° |
| 2026-04-21 12:21 | 22.60831 | 111.96452 | 19417 ft | 478 kts | 46° |
| 2026-04-21 12:21 | 22.63131 | 111.99038 | 19167 ft | 476 kts | 46° |
| 2026-04-21 12:21 | 22.65416 | 112.01611 | 18916 ft | 473 kts | 46° |
| 2026-04-21 12:22 | 22.67694 | 112.04176 | 18666 ft | 472 kts | 46° |
| 2026-04-21 12:22 | 22.69963 | 112.06730 | 18416 ft | 469 kts | 46° |
| 2026-04-21 12:22 | 22.72219 | 112.09276 | 18166 ft | 467 kts | 46° |
| 2026-04-21 12:22 | 22.74464 | 112.11812 | 17915 ft | 465 kts | 46° |
| 2026-04-21 12:23 | 22.76702 | 112.14341 | 17665 ft | 464 kts | 46° |
| 2026-04-21 12:23 | 22.78898 | 112.16820 | 17418 ft | 462 kts | 46° |
| 2026-04-21 12:23 | 22.81117 | 112.19324 | 17167 ft | 459 kts | 46° |
| 2026-04-21 12:23 | 22.83324 | 112.21820 | 16917 ft | 458 kts | 46° |
| 2026-04-21 12:24 | 22.85520 | 112.24306 | 16667 ft | 456 kts | 46° |
| 2026-04-21 12:24 | 22.87710 | 112.26780 | 16417 ft | 454 kts | 46° |
| 2026-04-21 12:24 | 22.89889 | 112.29243 | 16167 ft | 452 kts | 46° |
| 2026-04-21 12:24 | 22.92058 | 112.31698 | 15916 ft | 450 kts | 46° |
| 2026-04-21 12:25 | 22.94220 | 112.34142 | 15666 ft | 448 kts | 46° |
| 2026-04-21 12:25 | 22.96371 | 112.36578 | 15416 ft | 446 kts | 46° |
| 2026-04-21 12:25 | 22.98482 | 112.38975 | 15169 ft | 444 kts | 46° |
| 2026-04-21 12:25 | 23.00608 | 112.41396 | 14919 ft | 442 kts | 46° |
| 2026-04-21 12:26 | 23.02672 | 112.43860 | 14667 ft | 440 kts | 51° |
| 2026-04-21 12:26 | 23.04398 | 112.46598 | 14417 ft | 438 kts | 60° |
| 2026-04-21 12:26 | 23.05703 | 112.49571 | 14166 ft | 433 kts | 69° |
| 2026-04-21 12:26 | 23.06548 | 112.52637 | 13915 ft | 415 kts | 78° |
| 2026-04-21 12:27 | 23.06952 | 112.55668 | 13666 ft | 397 kts | 86° |
| 2026-04-21 12:27 | 23.06991 | 112.58567 | 13421 ft | 382 kts | 91° |
| 2026-04-21 12:27 | 23.06979 | 112.61394 | 13171 ft | 368 kts | 90° |
| 2026-04-21 12:27 | 23.06977 | 112.64121 | 12921 ft | 355 kts | 90° |
| 2026-04-21 12:28 | 23.06975 | 112.66765 | 12671 ft | 345 kts | 90° |
| 2026-04-21 12:28 | 23.06969 | 112.69330 | 12422 ft | 335 kts | 90° |
| 2026-04-21 12:28 | 23.06964 | 112.71831 | 12172 ft | 327 kts | 90° |
| 2026-04-21 12:28 | 23.06961 | 112.74272 | 11922 ft | 320 kts | 90° |
| 2026-04-21 12:29 | 23.06949 | 112.76660 | 11672 ft | 313 kts | 91° |
| 2026-04-21 12:29 | 23.06933 | 112.79005 | 11422 ft | 309 kts | 91° |
| 2026-04-21 12:29 | 23.06914 | 112.81298 | 11175 ft | 307 kts | 91° |
| 2026-04-21 12:29 | 23.06894 | 112.83613 | 10924 ft | 306 kts | 91° |
| 2026-04-21 12:30 | 23.06875 | 112.85916 | 10674 ft | 304 kts | 91° |
| 2026-04-21 12:30 | 23.06858 | 112.88209 | 10423 ft | 303 kts | 91° |
| 2026-04-21 12:30 | 23.06840 | 112.90490 | 10173 ft | 302 kts | 91° |
| 2026-04-21 12:30 | 23.06822 | 112.92763 | 9936 ft | 300 kts | 91° |
| 2026-04-21 12:31 | 23.06804 | 112.95027 | 9812 ft | 300 kts | 91° |
| 2026-04-21 12:31 | 23.06782 | 112.97259 | 9688 ft | 299 kts | 91° |
| 2026-04-21 12:31 | 23.06759 | 112.99516 | 9563 ft | 299 kts | 91° |
| 2026-04-21 12:31 | 23.06735 | 113.01769 | 9437 ft | 298 kts | 91° |
| 2026-04-21 12:32 | 23.06715 | 113.04017 | 9312 ft | 297 kts | 89° |
| 2026-04-21 12:32 | 23.06984 | 113.06238 | 9186 ft | 297 kts | 75° |
| 2026-04-21 12:32 | 23.07741 | 113.08317 | 9061 ft | 297 kts | 61° |
| 2026-04-21 12:32 | 23.08933 | 113.10136 | 8936 ft | 296 kts | 47° |
| 2026-04-21 12:33 | 23.10455 | 113.11584 | 8813 ft | 295 kts | 34° |
| 2026-04-21 12:33 | 23.12269 | 113.12616 | 8687 ft | 294 kts | 20° |
| 2026-04-21 12:33 | 23.14245 | 113.13176 | 8563 ft | 294 kts | 10° |
| 2026-04-21 12:33 | 23.16251 | 113.13593 | 8437 ft | 293 kts | 10° |
| 2026-04-21 12:34 | 23.18253 | 113.14008 | 8312 ft | 293 kts | 10° |
| 2026-04-21 12:34 | 23.20251 | 113.14424 | 8187 ft | 292 kts | 11° |
| 2026-04-21 12:34 | 23.22243 | 113.14843 | 8061 ft | 291 kts | 11° |
| 2026-04-21 12:34 | 23.24232 | 113.15265 | 7936 ft | 291 kts | 11° |
| 2026-04-21 12:35 | 23.26188 | 113.15681 | 7813 ft | 290 kts | 11° |
| 2026-04-21 12:35 | 23.28166 | 113.16104 | 7687 ft | 289 kts | 11° |
| 2026-04-21 12:35 | 23.30142 | 113.16523 | 7562 ft | 289 kts | 11° |
| 2026-04-21 12:35 | 23.32112 | 113.16943 | 7437 ft | 288 kts | 11° |
| 2026-04-21 12:36 | 23.34078 | 113.17357 | 7312 ft | 288 kts | 11° |
| 2026-04-21 12:36 | 23.36042 | 113.17771 | 7186 ft | 287 kts | 11° |
| 2026-04-21 12:36 | 23.38000 | 113.18186 | 7061 ft | 286 kts | 11° |
| 2026-04-21 12:36 | 23.39953 | 113.18600 | 6936 ft | 286 kts | 11° |
| 2026-04-21 12:37 | 23.41875 | 113.19003 | 6813 ft | 285 kts | 11° |
| 2026-04-21 12:37 | 23.43823 | 113.19410 | 6687 ft | 285 kts | 10° |
| 2026-04-21 12:37 | 23.45766 | 113.19813 | 6562 ft | 284 kts | 10° |
| 2026-04-21 12:37 | 23.47705 | 113.20217 | 6437 ft | 283 kts | 10° |
| 2026-04-21 12:38 | 23.49640 | 113.20617 | 6311 ft | 283 kts | 10° |
| 2026-04-21 12:38 | 23.51572 | 113.21011 | 6186 ft | 282 kts | 10° |
| 2026-04-21 12:38 | 23.53499 | 113.21403 | 6060 ft | 282 kts | 10° |
| 2026-04-21 12:38 | 23.55416 | 113.21797 | 5766 ft | 280 kts | 10° |
| 2026-04-21 12:39 | 23.57322 | 113.22194 | 5429 ft | 278 kts | 10° |
| 2026-04-21 12:39 | 23.59191 | 113.22584 | 5124 ft | 276 kts | 10° |
| 2026-04-21 12:39 | 23.61041 | 113.22967 | 4999 ft | 266 kts | 10° |
| 2026-04-21 12:39 | 23.62830 | 113.23337 | 4872 ft | 257 kts | 10° |
| 2026-04-21 12:40 | 23.64557 | 113.23692 | 4746 ft | 248 kts | 10° |
| 2026-04-21 12:40 | 23.66218 | 113.24034 | 4620 ft | 238 kts | 10° |
| 2026-04-21 12:40 | 23.67813 | 113.24368 | 4494 ft | 229 kts | 11° |
| 2026-04-21 12:40 | 23.69343 | 113.24701 | 4365 ft | 220 kts | 12° |
| 2026-04-21 12:41 | 23.70736 | 113.25326 | 4182 ft | 214 kts | 37° |
| 2026-04-21 12:41 | 23.71671 | 113.26515 | 4122 ft | 204 kts | 65° |
| 2026-04-21 12:41 | 23.71999 | 113.27975 | 4077 ft | 202 kts | 91° |
| 2026-04-21 12:41 | 23.71713 | 113.29456 | 4037 ft | 201 kts | 112° |
| 2026-04-21 12:42 | 23.71221 | 113.30883 | 3994 ft | 201 kts | 111° |
| 2026-04-21 12:42 | 23.70735 | 113.32309 | 3949 ft | 200 kts | 111° |
| 2026-04-21 12:42 | 23.70252 | 113.33730 | 3905 ft | 200 kts | 111° |
| 2026-04-21 12:42 | 23.69769 | 113.35151 | 3860 ft | 199 kts | 111° |
| 2026-04-21 12:43 | 23.69211 | 113.36529 | 3812 ft | 198 kts | 124° |
| 2026-04-21 12:43 | 23.68288 | 113.37633 | 3769 ft | 197 kts | 144° |
| 2026-04-21 12:43 | 23.67078 | 113.38315 | 3725 ft | 196 kts | 165° |
| 2026-04-21 12:43 | 23.65751 | 113.38496 | 3682 ft | 195 kts | 185° |
| 2026-04-21 12:44 | 23.64422 | 113.38210 | 3644 ft | 195 kts | 194° |
| 2026-04-21 12:44 | 23.63105 | 113.37852 | 3600 ft | 195 kts | 194° |
| 2026-04-21 12:44 | 23.61789 | 113.37494 | 3557 ft | 195 kts | 194° |
| 2026-04-21 12:44 | 23.60474 | 113.37137 | 3515 ft | 195 kts | 194° |
| 2026-04-21 12:45 | 23.59158 | 113.36781 | 3467 ft | 195 kts | 194° |
| 2026-04-21 12:45 | 23.57842 | 113.36424 | 3336 ft | 194 kts | 194° |
| 2026-04-21 12:45 | 23.56532 | 113.36069 | 3241 ft | 195 kts | 194° |
| 2026-04-21 12:45 | 23.55242 | 113.35719 | 3035 ft | 193 kts | 194° |
| 2026-04-21 12:46 | 23.53940 | 113.35367 | 2792 ft | 192 kts | 194° |
| 2026-04-21 12:46 | 23.52658 | 113.35020 | 2575 ft | 184 kts | 194° |
| 2026-04-21 12:46 | 23.51454 | 113.34694 | 2321 ft | 169 kts | 194° |
| 2026-04-21 12:46 | 23.50389 | 113.34406 | 2093 ft | 149 kts | 195° |
| 2026-04-21 12:47 | 23.49414 | 113.34142 | 1901 ft | 141 kts | 194° |
| 2026-04-21 12:47 | 23.48471 | 113.33886 | 1718 ft | 138 kts | 194° |
| 2026-04-21 12:47 | 23.47541 | 113.33634 | 1536 ft | 137 kts | 194° |
| 2026-04-21 12:47 | 23.46617 | 113.33384 | 1355 ft | 137 kts | 194° |
| 2026-04-21 12:48 | 23.45695 | 113.33135 | 1175 ft | 136 kts | 194° |
| 2026-04-21 12:48 | 23.44790 | 113.32890 | 998 ft | 136 kts | 194° |
| 2026-04-21 12:48 | 23.43877 | 113.32637 | 814 ft | 135 kts | 195° |
| 2026-04-21 12:48 | 23.42966 | 113.32386 | 644 ft | 135 kts | 195° |
| 2026-04-21 12:49 | 23.42057 | 113.32140 | 465 ft | 134 kts | 195° |
| 2026-04-21 12:49 | 23.41150 | 113.31898 | 281 ft | 134 kts | 194° |
| 2026-04-21 12:49 | 23.40247 | 113.31656 | 108 ft | 134 kts | 195° |
| 2026-04-21 12:49 | 23.39398 | 113.31417 | 59 ft | 111 kts | 194° |
| 2026-04-21 12:50 | 23.38914 | 113.31293 | 55 ft | 43 kts | 193° |
| 2026-04-21 12:50 | 23.38647 | 113.31219 | 57 ft | 29 kts | 204° |
| 2026-04-21 12:50 | 23.38481 | 113.31087 | 58 ft | 31 kts | 222° |
| 2026-04-21 12:50 | 23.38340 | 113.30951 | 58 ft | 25 kts | 212° |
| 2026-04-21 12:51 | 23.38165 | 113.30896 | 58 ft | 28 kts | 194° |
| 2026-04-21 12:51 | 23.38031 | 113.30858 | 58 ft | 21 kts | 194° |
| 2026-04-21 12:51 | 23.37880 | 113.30819 | 58 ft | 24 kts | 193° |
| 2026-04-21 12:51 | 23.37732 | 113.30782 | 58 ft | 22 kts | 195° |
| 2026-04-21 12:52 | 23.37580 | 113.30734 | 58 ft | 19 kts | 205° |
| 2026-04-21 12:52 | 23.37557 | 113.30640 | 58 ft | 15 kts | 286° |
| 2026-04-21 12:52 | 23.37587 | 113.30516 | 58 ft | 19 kts | 284° |
| 2026-04-21 12:52 | 23.37617 | 113.30386 | 58 ft | 18 kts | 284° |
| 2026-04-21 12:53 | 23.37665 | 113.30270 | 58 ft | 16 kts | 349° |
| 2026-04-21 12:53 | 23.37785 | 113.30290 | 58 ft | 19 kts | 13° |
| 2026-04-21 12:53 | 23.37913 | 113.30326 | 58 ft | 19 kts | 15° |
| 2026-04-21 12:53 | 23.38045 | 113.30360 | 58 ft | 21 kts | 12° |
| 2026-04-21 12:54 | 23.38125 | 113.30298 | 58 ft | 11 kts | 279° |
| 2026-04-21 12:54 | 23.38143 | 113.30201 | 58 ft | 15 kts | 282° |
| 2026-04-21 12:54 | 23.38169 | 113.30079 | 58 ft | 18 kts | 285° |
| 2026-04-21 12:54 | 23.38256 | 113.29992 | 58 ft | 18 kts | 322° |
| 2026-04-21 12:55 | 23.38301 | 113.30002 | 58 ft | 6 kts | 47° |
| 2026-04-21 12:55 | 23.38332 | 113.30045 | 58 ft | 7 kts | 52° |
| 2026-04-21 12:55 | 23.38340 | 113.30055 | 58 ft | 0 kts | 51° |